sensor_id;sensor_type;location;lat;lon;timestamp;P1;durP1;ratioP1;P2;durP2;ratioP2
14722;SDS011;7452;55.594;12.986;2023-03-25T00:02:31;14.80;;;3.83;;
14722;SDS011;7452;55.594;12.986;2023-03-25T00:04:58;12.03;;;3.80;;
14722;SDS011;7452;55.594;12.986;2023-03-25T00:07:27;15.77;;;3.70;;
14722;SDS011;7452;55.594;12.986;2023-03-25T00:09:57;14.10;;;3.70;;
14722;SDS011;7452;55.594;12.986;2023-03-25T00:12:24;19.30;;;4.47;;
14722;SDS011;7452;55.594;12.986;2023-03-25T00:14:51;15.80;;;4.43;;
14722;SDS011;7452;55.594;12.986;2023-03-25T00:17:19;15.20;;;3.70;;
14722;SDS011;7452;55.594;12.986;2023-03-25T00:19:47;18.97;;;4.17;;
14722;SDS011;7452;55.594;12.986;2023-03-25T00:22:15;16.07;;;3.80;;
14722;SDS011;7452;55.594;12.986;2023-03-25T00:24:43;12.37;;;3.87;;
14722;SDS011;7452;55.594;12.986;2023-03-25T00:27:11;16.47;;;4.37;;
14722;SDS011;7452;55.594;12.986;2023-03-25T00:29:38;15.83;;;3.90;;
14722;SDS011;7452;55.594;12.986;2023-03-25T00:32:06;14.77;;;3.43;;
14722;SDS011;7452;55.594;12.986;2023-03-25T00:34:33;15.17;;;4.03;;
14722;SDS011;7452;55.594;12.986;2023-03-25T00:37:07;15.90;;;3.90;;
14722;SDS011;7452;55.594;12.986;2023-03-25T00:39:34;26.47;;;5.07;;
14722;SDS011;7452;55.594;12.986;2023-03-25T00:42:02;21.60;;;9.73;;
14722;SDS011;7452;55.594;12.986;2023-03-25T00:44:30;16.10;;;3.47;;
14722;SDS011;7452;55.594;12.986;2023-03-25T00:46:59;17.70;;;4.37;;
14722;SDS011;7452;55.594;12.986;2023-03-25T00:49:26;16.07;;;4.13;;
14722;SDS011;7452;55.594;12.986;2023-03-25T00:51:53;27.33;;;4.73;;
14722;SDS011;7452;55.594;12.986;2023-03-25T00:54:21;21.53;;;3.87;;
14722;SDS011;7452;55.594;12.986;2023-03-25T00:56:48;16.53;;;3.83;;
14722;SDS011;7452;55.594;12.986;2023-03-25T00:59:16;19.27;;;4.77;;
14722;SDS011;7452;55.594;12.986;2023-03-25T01:01:44;17.37;;;4.10;;
14722;SDS011;7452;55.594;12.986;2023-03-25T01:04:11;15.63;;;3.73;;
14722;SDS011;7452;55.594;12.986;2023-03-25T01:06:40;16.80;;;4.03;;
14722;SDS011;7452;55.594;12.986;2023-03-25T01:09:09;18.13;;;5.43;;
14722;SDS011;7452;55.594;12.986;2023-03-25T01:11:37;14.03;;;3.50;;
14722;SDS011;7452;55.594;12.986;2023-03-25T01:14:06;11.63;;;3.73;;
14722;SDS011;7452;55.594;12.986;2023-03-25T01:16:35;15.40;;;4.30;;
14722;SDS011;7452;55.594;12.986;2023-03-25T01:19:03;16.93;;;4.20;;
14722;SDS011;7452;55.594;12.986;2023-03-25T01:21:30;13.97;;;4.17;;
14722;SDS011;7452;55.594;12.986;2023-03-25T01:24:00;13.97;;;3.07;;
14722;SDS011;7452;55.594;12.986;2023-03-25T01:26:29;13.83;;;3.53;;
14722;SDS011;7452;55.594;12.986;2023-03-25T01:28:56;16.60;;;3.60;;
14722;SDS011;7452;55.594;12.986;2023-03-25T01:31:23;8.83;;;3.20;;
14722;SDS011;7452;55.594;12.986;2023-03-25T01:33:54;11.90;;;3.47;;
14722;SDS011;7452;55.594;12.986;2023-03-25T01:36:23;10.57;;;3.47;;
14722;SDS011;7452;55.594;12.986;2023-03-25T01:38:53;16.10;;;3.10;;
14722;SDS011;7452;55.594;12.986;2023-03-25T01:41:22;9.87;;;3.33;;
14722;SDS011;7452;55.594;12.986;2023-03-25T01:43:59;11.00;;;2.90;;
14722;SDS011;7452;55.594;12.986;2023-03-25T01:46:27;10.97;;;3.43;;
14722;SDS011;7452;55.594;12.986;2023-03-25T01:48:54;13.67;;;3.37;;
14722;SDS011;7452;55.594;12.986;2023-03-25T01:51:24;10.93;;;3.23;;
14722;SDS011;7452;55.594;12.986;2023-03-25T01:53:55;10.83;;;2.73;;
14722;SDS011;7452;55.594;12.986;2023-03-25T01:56:23;11.00;;;3.43;;
14722;SDS011;7452;55.594;12.986;2023-03-25T01:58:54;12.57;;;3.70;;
14722;SDS011;7452;55.594;12.986;2023-03-25T02:01:23;9.67;;;3.20;;
14722;SDS011;7452;55.594;12.986;2023-03-25T02:03:51;9.47;;;2.53;;
14722;SDS011;7452;55.594;12.986;2023-03-25T02:06:29;11.13;;;2.93;;
14722;SDS011;7452;55.594;12.986;2023-03-25T02:09:03;9.80;;;2.90;;
14722;SDS011;7452;55.594;12.986;2023-03-25T02:11:33;8.37;;;3.13;;
14722;SDS011;7452;55.594;12.986;2023-03-25T02:14:01;7.00;;;2.73;;
14722;SDS011;7452;55.594;12.986;2023-03-25T02:16:32;9.63;;;3.07;;
14722;SDS011;7452;55.594;12.986;2023-03-25T02:19:13;10.07;;;3.23;;
14722;SDS011;7452;55.594;12.986;2023-03-25T02:25:25;9.07;;;3.00;;
14722;SDS011;7452;55.594;12.986;2023-03-25T02:28:06;9.93;;;3.43;;
14722;SDS011;7452;55.594;12.986;2023-03-25T02:34:09;8.33;;;3.23;;
14722;SDS011;7452;55.594;12.986;2023-03-25T02:39:39;11.03;;;4.07;;
14722;SDS011;7452;55.594;12.986;2023-03-25T02:42:11;12.63;;;4.50;;
14722;SDS011;7452;55.594;12.986;2023-03-25T02:44:44;9.73;;;4.33;;
14722;SDS011;7452;55.594;12.986;2023-03-25T02:47:17;9.93;;;4.67;;
14722;SDS011;7452;55.594;12.986;2023-03-25T02:49:47;7.50;;;5.00;;
14722;SDS011;7452;55.594;12.986;2023-03-25T02:52:19;7.90;;;4.70;;
14722;SDS011;7452;55.594;12.986;2023-03-25T02:54:52;10.73;;;4.70;;
14722;SDS011;7452;55.594;12.986;2023-03-25T02:57:24;12.10;;;5.83;;
14722;SDS011;7452;55.594;12.986;2023-03-25T02:59:53;10.73;;;5.70;;
14722;SDS011;7452;55.594;12.986;2023-03-25T03:02:22;13.40;;;6.73;;
14722;SDS011;7452;55.594;12.986;2023-03-25T03:04:53;11.27;;;6.57;;
14722;SDS011;7452;55.594;12.986;2023-03-25T03:07:22;11.87;;;6.90;;
14722;SDS011;7452;55.594;12.986;2023-03-25T03:09:56;17.20;;;8.07;;
14722;SDS011;7452;55.594;12.986;2023-03-25T03:12:35;15.17;;;7.80;;
14722;SDS011;7452;55.594;12.986;2023-03-25T03:15:17;12.13;;;7.23;;
14722;SDS011;7452;55.594;12.986;2023-03-25T03:17:55;13.17;;;7.43;;
14722;SDS011;7452;55.594;12.986;2023-03-25T03:20:36;13.10;;;7.43;;
14722;SDS011;7452;55.594;12.986;2023-03-25T03:23:07;10.77;;;7.23;;
14722;SDS011;7452;55.594;12.986;2023-03-25T03:25:42;12.77;;;6.57;;
14722;SDS011;7452;55.594;12.986;2023-03-25T03:28:15;11.47;;;6.70;;
14722;SDS011;7452;55.594;12.986;2023-03-25T03:30:50;13.30;;;6.83;;
14722;SDS011;7452;55.594;12.986;2023-03-25T03:33:24;12.83;;;6.93;;
14722;SDS011;7452;55.594;12.986;2023-03-25T03:35:56;10.63;;;6.20;;
14722;SDS011;7452;55.594;12.986;2023-03-25T03:38:27;10.00;;;5.90;;
14722;SDS011;7452;55.594;12.986;2023-03-25T03:41:01;12.47;;;5.90;;
14722;SDS011;7452;55.594;12.986;2023-03-25T03:43:32;9.77;;;5.43;;
14722;SDS011;7452;55.594;12.986;2023-03-25T03:46:06;11.00;;;6.43;;
14722;SDS011;7452;55.594;12.986;2023-03-25T03:48:39;10.40;;;5.70;;
14722;SDS011;7452;55.594;12.986;2023-03-25T03:51:10;10.00;;;6.40;;
14722;SDS011;7452;55.594;12.986;2023-03-25T03:53:43;13.43;;;6.27;;
14722;SDS011;7452;55.594;12.986;2023-03-25T03:56:16;12.77;;;6.90;;
14722;SDS011;7452;55.594;12.986;2023-03-25T03:58:47;12.90;;;6.77;;
14722;SDS011;7452;55.594;12.986;2023-03-25T04:01:24;11.87;;;6.00;;
14722;SDS011;7452;55.594;12.986;2023-03-25T04:03:59;9.23;;;5.43;;
14722;SDS011;7452;55.594;12.986;2023-03-25T04:06:29;12.80;;;5.10;;
14722;SDS011;7452;55.594;12.986;2023-03-25T04:09:04;12.33;;;4.93;;
14722;SDS011;7452;55.594;12.986;2023-03-25T04:11:38;10.40;;;4.53;;
14722;SDS011;7452;55.594;12.986;2023-03-25T04:14:08;7.33;;;4.20;;
14722;SDS011;7452;55.594;12.986;2023-03-25T04:16:38;10.47;;;3.80;;
14722;SDS011;7452;55.594;12.986;2023-03-25T04:19:10;8.50;;;3.30;;
14722;SDS011;7452;55.594;12.986;2023-03-25T04:21:42;8.23;;;4.57;;
14722;SDS011;7452;55.594;12.986;2023-03-25T04:24:12;11.57;;;5.20;;
14722;SDS011;7452;55.594;12.986;2023-03-25T04:26:42;8.53;;;5.10;;
14722;SDS011;7452;55.594;12.986;2023-03-25T04:29:09;8.17;;;4.77;;
14722;SDS011;7452;55.594;12.986;2023-03-25T04:31:37;7.80;;;4.60;;
14722;SDS011;7452;55.594;12.986;2023-03-25T04:34:10;7.73;;;5.00;;
14722;SDS011;7452;55.594;12.986;2023-03-25T04:36:40;13.60;;;6.67;;
14722;SDS011;7452;55.594;12.986;2023-03-25T04:39:08;10.60;;;5.97;;
14722;SDS011;7452;55.594;12.986;2023-03-25T04:41:36;14.03;;;6.77;;
14722;SDS011;7452;55.594;12.986;2023-03-25T04:44:05;11.47;;;6.30;;
14722;SDS011;7452;55.594;12.986;2023-03-25T04:46:32;14.30;;;6.37;;
14722;SDS011;7452;55.594;12.986;2023-03-25T04:49:00;13.23;;;7.27;;
14722;SDS011;7452;55.594;12.986;2023-03-25T04:51:30;11.93;;;6.47;;
14722;SDS011;7452;55.594;12.986;2023-03-25T04:53:57;12.93;;;6.77;;
14722;SDS011;7452;55.594;12.986;2023-03-25T04:56:25;10.87;;;6.30;;
14722;SDS011;7452;55.594;12.986;2023-03-25T04:58:53;11.73;;;6.20;;
14722;SDS011;7452;55.594;12.986;2023-03-25T05:01:23;12.17;;;6.07;;
14722;SDS011;7452;55.594;12.986;2023-03-25T05:03:54;9.87;;;6.20;;
14722;SDS011;7452;55.594;12.986;2023-03-25T05:06:28;13.30;;;6.60;;
14722;SDS011;7452;55.594;12.986;2023-03-25T05:08:57;11.30;;;6.33;;
14722;SDS011;7452;55.594;12.986;2023-03-25T05:11:25;13.83;;;6.73;;
14722;SDS011;7452;55.594;12.986;2023-03-25T05:13:52;12.50;;;6.50;;
14722;SDS011;7452;55.594;12.986;2023-03-25T05:16:21;12.17;;;6.57;;
14722;SDS011;7452;55.594;12.986;2023-03-25T05:18:48;11.83;;;6.43;;
14722;SDS011;7452;55.594;12.986;2023-03-25T05:21:15;10.77;;;6.13;;
14722;SDS011;7452;55.594;12.986;2023-03-25T05:23:42;10.30;;;7.03;;
14722;SDS011;7452;55.594;12.986;2023-03-25T05:26:11;11.67;;;6.57;;
14722;SDS011;7452;55.594;12.986;2023-03-25T05:28:38;12.97;;;6.77;;
14722;SDS011;7452;55.594;12.986;2023-03-25T05:31:06;15.30;;;7.43;;
14722;SDS011;7452;55.594;12.986;2023-03-25T05:33:35;14.40;;;7.00;;
14722;SDS011;7452;55.594;12.986;2023-03-25T05:36:07;14.63;;;7.50;;
14722;SDS011;7452;55.594;12.986;2023-03-25T05:38:34;14.27;;;7.60;;
14722;SDS011;7452;55.594;12.986;2023-03-25T05:41:02;9.60;;;7.57;;
14722;SDS011;7452;55.594;12.986;2023-03-25T05:43:29;13.57;;;8.20;;
14722;SDS011;7452;55.594;12.986;2023-03-25T05:45:59;13.47;;;7.70;;
14722;SDS011;7452;55.594;12.986;2023-03-25T05:48:28;19.57;;;8.30;;
14722;SDS011;7452;55.594;12.986;2023-03-25T05:50:57;12.60;;;8.20;;
14722;SDS011;7452;55.594;12.986;2023-03-25T05:53:26;15.23;;;8.17;;
14722;SDS011;7452;55.594;12.986;2023-03-25T05:55:55;15.23;;;8.40;;
14722;SDS011;7452;55.594;12.986;2023-03-25T05:58:21;16.77;;;9.10;;
14722;SDS011;7452;55.594;12.986;2023-03-25T06:00:49;17.17;;;9.30;;
14722;SDS011;7452;55.594;12.986;2023-03-25T06:03:17;17.90;;;8.93;;
14722;SDS011;7452;55.594;12.986;2023-03-25T06:05:44;14.63;;;9.37;;
14722;SDS011;7452;55.594;12.986;2023-03-25T06:08:13;16.70;;;9.13;;
14722;SDS011;7452;55.594;12.986;2023-03-25T06:10:41;14.50;;;8.50;;
14722;SDS011;7452;55.594;12.986;2023-03-25T06:13:10;14.00;;;8.67;;
14722;SDS011;7452;55.594;12.986;2023-03-25T06:15:37;16.63;;;9.57;;
14722;SDS011;7452;55.594;12.986;2023-03-25T06:18:05;17.17;;;8.90;;
14722;SDS011;7452;55.594;12.986;2023-03-25T06:20:34;22.30;;;10.40;;
14722;SDS011;7452;55.594;12.986;2023-03-25T06:23:01;20.43;;;9.77;;
14722;SDS011;7452;55.594;12.986;2023-03-25T06:25:30;16.77;;;9.07;;
14722;SDS011;7452;55.594;12.986;2023-03-25T06:27:57;16.83;;;9.57;;
14722;SDS011;7452;55.594;12.986;2023-03-25T06:30:27;19.00;;;9.30;;
14722;SDS011;7452;55.594;12.986;2023-03-25T06:32:55;16.90;;;8.70;;
14722;SDS011;7452;55.594;12.986;2023-03-25T06:35:27;16.47;;;8.33;;
14722;SDS011;7452;55.594;12.986;2023-03-25T06:37:54;13.07;;;7.07;;
14722;SDS011;7452;55.594;12.986;2023-03-25T06:40:21;13.43;;;6.60;;
14722;SDS011;7452;55.594;12.986;2023-03-25T06:42:49;9.37;;;6.17;;
14722;SDS011;7452;55.594;12.986;2023-03-25T06:45:17;11.07;;;5.73;;
14722;SDS011;7452;55.594;12.986;2023-03-25T06:47:45;11.80;;;5.50;;
14722;SDS011;7452;55.594;12.986;2023-03-25T06:50:13;14.67;;;5.70;;
14722;SDS011;7452;55.594;12.986;2023-03-25T06:52:40;10.60;;;5.93;;
14722;SDS011;7452;55.594;12.986;2023-03-25T06:55:07;9.60;;;5.73;;
14722;SDS011;7452;55.594;12.986;2023-03-25T06:57:34;12.37;;;5.53;;
14722;SDS011;7452;55.594;12.986;2023-03-25T07:00:03;7.10;;;4.67;;
14722;SDS011;7452;55.594;12.986;2023-03-25T07:02:31;10.97;;;5.07;;
14722;SDS011;7452;55.594;12.986;2023-03-25T07:04:58;10.30;;;4.20;;
14722;SDS011;7452;55.594;12.986;2023-03-25T07:07:25;8.27;;;3.90;;
14722;SDS011;7452;55.594;12.986;2023-03-25T07:09:52;11.30;;;4.93;;
14722;SDS011;7452;55.594;12.986;2023-03-25T07:12:20;11.20;;;6.37;;
14722;SDS011;7452;55.594;12.986;2023-03-25T07:14:49;14.60;;;7.83;;
14722;SDS011;7452;55.594;12.986;2023-03-25T07:17:18;19.03;;;9.97;;
14722;SDS011;7452;55.594;12.986;2023-03-25T07:19:45;20.67;;;10.37;;
14722;SDS011;7452;55.594;12.986;2023-03-25T07:22:12;17.37;;;10.53;;
14722;SDS011;7452;55.594;12.986;2023-03-25T07:24:40;22.37;;;11.30;;
14722;SDS011;7452;55.594;12.986;2023-03-25T07:27:08;19.60;;;10.87;;
14722;SDS011;7452;55.594;12.986;2023-03-25T07:29:36;21.70;;;10.70;;
14722;SDS011;7452;55.594;12.986;2023-03-25T07:32:03;17.03;;;10.37;;
14722;SDS011;7452;55.594;12.986;2023-03-25T07:34:31;19.50;;;10.57;;
14722;SDS011;7452;55.594;12.986;2023-03-25T07:36:58;16.67;;;10.10;;
14722;SDS011;7452;55.594;12.986;2023-03-25T07:39:25;18.30;;;10.00;;
14722;SDS011;7452;55.594;12.986;2023-03-25T07:41:52;20.03;;;10.63;;
14722;SDS011;7452;55.594;12.986;2023-03-25T07:44:19;15.87;;;9.87;;
14722;SDS011;7452;55.594;12.986;2023-03-25T07:46:46;20.17;;;10.60;;
14722;SDS011;7452;55.594;12.986;2023-03-25T07:49:14;18.70;;;10.27;;
14722;SDS011;7452;55.594;12.986;2023-03-25T07:51:42;17.27;;;11.60;;
14722;SDS011;7452;55.594;12.986;2023-03-25T07:54:10;19.80;;;12.20;;
14722;SDS011;7452;55.594;12.986;2023-03-25T07:56:37;17.30;;;10.93;;
14722;SDS011;7452;55.594;12.986;2023-03-25T07:59:04;22.30;;;13.00;;
14722;SDS011;7452;55.594;12.986;2023-03-25T08:01:30;21.50;;;12.73;;
14722;SDS011;7452;55.594;12.986;2023-03-25T08:03:57;18.63;;;10.63;;
14722;SDS011;7452;55.594;12.986;2023-03-25T08:06:24;18.17;;;10.40;;
14722;SDS011;7452;55.594;12.986;2023-03-25T08:08:53;19.20;;;11.30;;
14722;SDS011;7452;55.594;12.986;2023-03-25T08:11:20;18.30;;;12.07;;
14722;SDS011;7452;55.594;12.986;2023-03-25T08:13:48;19.13;;;10.97;;
14722;SDS011;7452;55.594;12.986;2023-03-25T08:16:15;18.10;;;10.73;;
14722;SDS011;7452;55.594;12.986;2023-03-25T08:18:42;18.40;;;9.93;;
14722;SDS011;7452;55.594;12.986;2023-03-25T08:21:17;17.30;;;10.27;;
14722;SDS011;7452;55.594;12.986;2023-03-25T08:23:48;17.03;;;10.13;;
14722;SDS011;7452;55.594;12.986;2023-03-25T08:26:17;16.17;;;9.53;;
14722;SDS011;7452;55.594;12.986;2023-03-25T08:28:44;15.13;;;9.33;;
14722;SDS011;7452;55.594;12.986;2023-03-25T08:31:12;14.90;;;8.97;;
14722;SDS011;7452;55.594;12.986;2023-03-25T08:33:39;14.93;;;8.90;;
14722;SDS011;7452;55.594;12.986;2023-03-25T08:36:07;15.57;;;8.77;;
14722;SDS011;7452;55.594;12.986;2023-03-25T08:38:38;16.23;;;8.70;;
14722;SDS011;7452;55.594;12.986;2023-03-25T08:41:05;16.77;;;8.97;;
14722;SDS011;7452;55.594;12.986;2023-03-25T08:43:34;16.27;;;8.93;;
14722;SDS011;7452;55.594;12.986;2023-03-25T08:46:01;14.20;;;8.30;;
14722;SDS011;7452;55.594;12.986;2023-03-25T08:48:28;12.87;;;7.93;;
14722;SDS011;7452;55.594;12.986;2023-03-25T08:50:55;14.97;;;8.30;;
14722;SDS011;7452;55.594;12.986;2023-03-25T08:53:22;12.27;;;7.77;;
14722;SDS011;7452;55.594;12.986;2023-03-25T08:55:50;12.83;;;7.93;;
14722;SDS011;7452;55.594;12.986;2023-03-25T08:58:18;13.67;;;7.63;;
14722;SDS011;7452;55.594;12.986;2023-03-25T09:00:49;11.27;;;7.47;;
14722;SDS011;7452;55.594;12.986;2023-03-25T09:03:18;13.07;;;7.13;;
14722;SDS011;7452;55.594;12.986;2023-03-25T09:05:45;16.70;;;6.87;;
14722;SDS011;7452;55.594;12.986;2023-03-25T09:08:12;13.07;;;7.70;;
14722;SDS011;7452;55.594;12.986;2023-03-25T09:10:40;11.40;;;7.07;;
14722;SDS011;7452;55.594;12.986;2023-03-25T09:13:07;11.23;;;6.93;;
14722;SDS011;7452;55.594;12.986;2023-03-25T09:15:34;11.80;;;6.50;;
14722;SDS011;7452;55.594;12.986;2023-03-25T09:18:03;9.37;;;5.63;;
14722;SDS011;7452;55.594;12.986;2023-03-25T09:20:30;10.70;;;4.97;;
14722;SDS011;7452;55.594;12.986;2023-03-25T09:22:57;7.17;;;4.53;;
14722;SDS011;7452;55.594;12.986;2023-03-25T09:25:24;9.10;;;4.30;;
14722;SDS011;7452;55.594;12.986;2023-03-25T09:27:54;6.00;;;4.20;;
14722;SDS011;7452;55.594;12.986;2023-03-25T09:30:21;10.10;;;4.40;;
14722;SDS011;7452;55.594;12.986;2023-03-25T09:32:48;8.50;;;3.50;;
14722;SDS011;7452;55.594;12.986;2023-03-25T09:35:17;7.07;;;3.90;;
14722;SDS011;7452;55.594;12.986;2023-03-25T09:37:44;6.47;;;3.47;;
14722;SDS011;7452;55.594;12.986;2023-03-25T09:40:12;6.53;;;2.77;;
14722;SDS011;7452;55.594;12.986;2023-03-25T09:42:48;7.33;;;2.83;;
14722;SDS011;7452;55.594;12.986;2023-03-25T09:45:25;7.07;;;2.80;;
14722;SDS011;7452;55.594;12.986;2023-03-25T09:47:59;5.03;;;2.50;;
14722;SDS011;7452;55.594;12.986;2023-03-25T09:50:32;5.93;;;3.00;;
14722;SDS011;7452;55.594;12.986;2023-03-25T09:53:03;5.50;;;2.90;;
14722;SDS011;7452;55.594;12.986;2023-03-25T09:55:34;5.40;;;3.07;;
14722;SDS011;7452;55.594;12.986;2023-03-25T09:58:13;5.60;;;2.90;;
14722;SDS011;7452;55.594;12.986;2023-03-25T10:00:55;9.47;;;3.03;;
14722;SDS011;7452;55.594;12.986;2023-03-25T10:03:29;5.30;;;2.60;;
14722;SDS011;7452;55.594;12.986;2023-03-25T10:06:07;6.03;;;2.80;;
14722;SDS011;7452;55.594;12.986;2023-03-25T10:08:48;5.43;;;2.90;;
14722;SDS011;7452;55.594;12.986;2023-03-25T10:11:28;6.33;;;2.40;;
14722;SDS011;7452;55.594;12.986;2023-03-25T10:14:03;4.77;;;2.60;;
14722;SDS011;7452;55.594;12.986;2023-03-25T10:16:39;6.33;;;2.67;;
14722;SDS011;7452;55.594;12.986;2023-03-25T10:19:33;7.50;;;2.50;;
14722;SDS011;7452;55.594;12.986;2023-03-25T10:22:14;3.70;;;2.47;;
14722;SDS011;7452;55.594;12.986;2023-03-25T10:24:47;7.47;;;2.30;;
14722;SDS011;7452;55.594;12.986;2023-03-25T10:27:18;6.13;;;2.70;;
14722;SDS011;7452;55.594;12.986;2023-03-25T10:29:49;4.57;;;2.73;;
14722;SDS011;7452;55.594;12.986;2023-03-25T10:32:22;7.53;;;3.27;;
14722;SDS011;7452;55.594;12.986;2023-03-25T10:34:55;7.13;;;3.30;;
14722;SDS011;7452;55.594;12.986;2023-03-25T10:37:29;8.50;;;2.90;;
14722;SDS011;7452;55.594;12.986;2023-03-25T10:40:08;5.97;;;2.90;;
14722;SDS011;7452;55.594;12.986;2023-03-25T10:42:41;8.70;;;2.63;;
14722;SDS011;7452;55.594;12.986;2023-03-25T10:45:19;5.13;;;2.10;;
14722;SDS011;7452;55.594;12.986;2023-03-25T10:47:48;8.07;;;2.40;;
14722;SDS011;7452;55.594;12.986;2023-03-25T10:50:20;7.03;;;2.00;;
14722;SDS011;7452;55.594;12.986;2023-03-25T10:52:52;6.07;;;2.47;;
14722;SDS011;7452;55.594;12.986;2023-03-25T10:55:22;6.10;;;2.30;;
14722;SDS011;7452;55.594;12.986;2023-03-25T10:57:50;6.77;;;2.20;;
14722;SDS011;7452;55.594;12.986;2023-03-25T11:00:20;6.53;;;1.87;;
14722;SDS011;7452;55.594;12.986;2023-03-25T11:02:50;6.37;;;2.00;;
14722;SDS011;7452;55.594;12.986;2023-03-25T11:05:19;7.57;;;2.30;;
14722;SDS011;7452;55.594;12.986;2023-03-25T11:07:52;7.70;;;2.43;;
14722;SDS011;7452;55.594;12.986;2023-03-25T11:10:23;6.10;;;2.30;;
14722;SDS011;7452;55.594;12.986;2023-03-25T11:12:52;7.10;;;2.27;;
14722;SDS011;7452;55.594;12.986;2023-03-25T11:15:22;9.47;;;2.53;;
14722;SDS011;7452;55.594;12.986;2023-03-25T11:17:55;8.60;;;2.73;;
14722;SDS011;7452;55.594;12.986;2023-03-25T11:20:26;7.13;;;2.30;;
14722;SDS011;7452;55.594;12.986;2023-03-25T11:23:00;8.87;;;2.77;;
14722;SDS011;7452;55.594;12.986;2023-03-25T11:25:35;8.10;;;2.37;;
14722;SDS011;7452;55.594;12.986;2023-03-25T11:28:09;8.30;;;2.40;;
14722;SDS011;7452;55.594;12.986;2023-03-25T11:33:41;10.13;;;2.50;;
14722;SDS011;7452;55.594;12.986;2023-03-25T11:36:19;7.70;;;2.67;;
14722;SDS011;7452;55.594;12.986;2023-03-25T11:38:55;9.67;;;3.00;;
14722;SDS011;7452;55.594;12.986;2023-03-25T11:41:26;9.40;;;2.40;;
14722;SDS011;7452;55.594;12.986;2023-03-25T11:43:55;11.23;;;2.80;;
14722;SDS011;7452;55.594;12.986;2023-03-25T11:46:23;9.30;;;2.80;;
14722;SDS011;7452;55.594;12.986;2023-03-25T11:48:51;7.50;;;2.50;;
14722;SDS011;7452;55.594;12.986;2023-03-25T11:51:20;8.07;;;2.23;;
14722;SDS011;7452;55.594;12.986;2023-03-25T11:53:52;6.90;;;2.40;;
14722;SDS011;7452;55.594;12.986;2023-03-25T11:56:26;8.23;;;2.30;;
14722;SDS011;7452;55.594;12.986;2023-03-25T11:58:58;9.07;;;2.40;;
14722;SDS011;7452;55.594;12.986;2023-03-25T12:01:27;8.90;;;2.60;;
14722;SDS011;7452;55.594;12.986;2023-03-25T12:04:06;10.27;;;2.67;;
14722;SDS011;7452;55.594;12.986;2023-03-25T12:06:37;10.43;;;2.73;;
14722;SDS011;7452;55.594;12.986;2023-03-25T12:09:20;6.83;;;2.50;;
14722;SDS011;7452;55.594;12.986;2023-03-25T12:11:48;11.40;;;3.47;;
14722;SDS011;7452;55.594;12.986;2023-03-25T12:14:31;10.03;;;3.00;;
14722;SDS011;7452;55.594;12.986;2023-03-25T12:17:09;13.87;;;2.77;;
14722;SDS011;7452;55.594;12.986;2023-03-25T12:19:50;8.60;;;2.57;;
14722;SDS011;7452;55.594;12.986;2023-03-25T12:22:32;8.87;;;2.40;;
14722;SDS011;7452;55.594;12.986;2023-03-25T12:25:11;9.00;;;2.83;;
14722;SDS011;7452;55.594;12.986;2023-03-25T12:27:54;6.60;;;2.33;;
14722;SDS011;7452;55.594;12.986;2023-03-25T12:30:33;7.27;;;2.40;;
14722;SDS011;7452;55.594;12.986;2023-03-25T12:33:12;6.97;;;2.73;;
14722;SDS011;7452;55.594;12.986;2023-03-25T12:35:54;8.10;;;2.40;;
14722;SDS011;7452;55.594;12.986;2023-03-25T12:38:35;9.57;;;1.93;;
14722;SDS011;7452;55.594;12.986;2023-03-25T12:41:14;8.23;;;2.33;;
14722;SDS011;7452;55.594;12.986;2023-03-25T12:43:52;5.37;;;2.00;;
14722;SDS011;7452;55.594;12.986;2023-03-25T12:49:32;8.40;;;1.90;;
14722;SDS011;7452;55.594;12.986;2023-03-25T12:52:17;5.50;;;2.00;;
14722;SDS011;7452;55.594;12.986;2023-03-25T12:54:55;6.97;;;1.80;;
14722;SDS011;7452;55.594;12.986;2023-03-25T12:57:44;5.30;;;2.00;;
14722;SDS011;7452;55.594;12.986;2023-03-25T13:00:25;5.10;;;1.57;;
14722;SDS011;7452;55.594;12.986;2023-03-25T13:03:19;4.80;;;1.90;;
14722;SDS011;7452;55.594;12.986;2023-03-25T13:06:10;7.07;;;1.93;;
14722;SDS011;7452;55.594;12.986;2023-03-25T13:08:46;5.53;;;1.70;;
14722;SDS011;7452;55.594;12.986;2023-03-25T13:11:20;5.27;;;1.87;;
14722;SDS011;7452;55.594;12.986;2023-03-25T13:13:53;7.57;;;1.70;;
14722;SDS011;7452;55.594;12.986;2023-03-25T13:16:24;6.63;;;1.60;;
14722;SDS011;7452;55.594;12.986;2023-03-25T13:18:58;5.37;;;1.47;;
14722;SDS011;7452;55.594;12.986;2023-03-25T13:21:28;6.73;;;2.00;;
14722;SDS011;7452;55.594;12.986;2023-03-25T13:23:58;5.60;;;1.97;;
14722;SDS011;7452;55.594;12.986;2023-03-25T13:26:31;5.27;;;1.70;;
14722;SDS011;7452;55.594;12.986;2023-03-25T13:29:01;5.07;;;2.00;;
14722;SDS011;7452;55.594;12.986;2023-03-25T13:31:31;6.13;;;1.63;;
14722;SDS011;7452;55.594;12.986;2023-03-25T13:34:10;6.70;;;1.80;;
14722;SDS011;7452;55.594;12.986;2023-03-25T13:36:49;6.10;;;2.20;;
14722;SDS011;7452;55.594;12.986;2023-03-25T13:39:26;4.17;;;1.83;;
14722;SDS011;7452;55.594;12.986;2023-03-25T13:41:59;6.33;;;1.80;;
14722;SDS011;7452;55.594;12.986;2023-03-25T13:44:32;7.20;;;2.13;;
14722;SDS011;7452;55.594;12.986;2023-03-25T13:47:02;4.30;;;1.60;;
14722;SDS011;7452;55.594;12.986;2023-03-25T13:49:35;5.27;;;1.83;;
14722;SDS011;7452;55.594;12.986;2023-03-25T13:52:06;5.30;;;1.80;;
14722;SDS011;7452;55.594;12.986;2023-03-25T13:54:34;5.87;;;2.17;;
14722;SDS011;7452;55.594;12.986;2023-03-25T13:57:20;6.10;;;1.87;;
14722;SDS011;7452;55.594;12.986;2023-03-25T14:00:08;5.07;;;1.87;;
14722;SDS011;7452;55.594;12.986;2023-03-25T14:03:02;7.97;;;2.17;;
14722;SDS011;7452;55.594;12.986;2023-03-25T14:05:48;4.53;;;1.80;;
14722;SDS011;7452;55.594;12.986;2023-03-25T14:08:43;6.53;;;2.20;;
14722;SDS011;7452;55.594;12.986;2023-03-25T14:11:35;6.77;;;1.80;;
14722;SDS011;7452;55.594;12.986;2023-03-25T14:14:05;7.53;;;2.07;;
14722;SDS011;7452;55.594;12.986;2023-03-25T14:16:39;5.77;;;1.70;;
14722;SDS011;7452;55.594;12.986;2023-03-25T14:19:10;5.00;;;1.90;;
14722;SDS011;7452;55.594;12.986;2023-03-25T14:21:40;5.87;;;1.70;;
14722;SDS011;7452;55.594;12.986;2023-03-25T14:24:09;6.47;;;1.70;;
14722;SDS011;7452;55.594;12.986;2023-03-25T14:26:43;7.80;;;2.10;;
14722;SDS011;7452;55.594;12.986;2023-03-25T14:29:27;4.47;;;1.87;;
14722;SDS011;7452;55.594;12.986;2023-03-25T14:32:02;5.67;;;1.90;;
14722;SDS011;7452;55.594;12.986;2023-03-25T14:34:32;6.23;;;2.33;;
14722;SDS011;7452;55.594;12.986;2023-03-25T14:37:22;7.97;;;1.90;;
14722;SDS011;7452;55.594;12.986;2023-03-25T14:39:55;6.43;;;2.33;;
14722;SDS011;7452;55.594;12.986;2023-03-25T14:42:39;5.20;;;1.60;;
14722;SDS011;7452;55.594;12.986;2023-03-25T14:48:20;5.07;;;1.67;;
14722;SDS011;7452;55.594;12.986;2023-03-25T14:50:53;8.57;;;2.50;;
14722;SDS011;7452;55.594;12.986;2023-03-25T14:53:34;10.20;;;2.23;;
14722;SDS011;7452;55.594;12.986;2023-03-25T14:56:05;8.37;;;3.10;;
14722;SDS011;7452;55.594;12.986;2023-03-25T14:58:35;8.20;;;2.40;;
14722;SDS011;7452;55.594;12.986;2023-03-25T15:01:05;7.57;;;2.10;;
14722;SDS011;7452;55.594;12.986;2023-03-25T15:03:37;6.47;;;2.00;;
14722;SDS011;7452;55.594;12.986;2023-03-25T15:06:08;7.67;;;1.83;;
14722;SDS011;7452;55.594;12.986;2023-03-25T15:08:40;5.93;;;1.63;;
14722;SDS011;7452;55.594;12.986;2023-03-25T15:11:17;9.73;;;2.67;;
14722;SDS011;7452;55.594;12.986;2023-03-25T15:13:53;6.83;;;1.90;;
14722;SDS011;7452;55.594;12.986;2023-03-25T15:16:27;8.07;;;2.23;;
14722;SDS011;7452;55.594;12.986;2023-03-25T15:19:01;7.10;;;2.10;;
14722;SDS011;7452;55.594;12.986;2023-03-25T15:21:31;9.27;;;2.53;;
14722;SDS011;7452;55.594;12.986;2023-03-25T15:24:16;6.60;;;1.90;;